Time;durP1;ratioP1;P1;durP2;ratioP2;P2;SDS_P1;SDS_P2;PMS_P1;PMS_P2;Temp;Humidity;BMP_temperature;BMP_pressure;BME280_temperature;BME280_humidity;BME280_pressure;Samples;Min_cycle;Max_cycle;Signal;HPM_P1;HPM_P2
2023/10/17 08:34:45;;;;;;;4.97;2.13;;;;;;;;;;4710563;28;80963;-68
2023/10/17 08:37:11;;;;;;;3.70;1.60;;;;;;;;;;4992948;28;20575;-69
2023/10/17 08:42:11;;;;;;;5.55;1.80;;;;;;;;;;4963454;28;20084;-67
2023/10/17 08:44:38;;;;;;;5.68;2.00;;;;;;;;;;4897550;28;58548;-69
2023/10/17 08:47:03;;;;;;;5.15;2.03;;;;;;;;;;4995749;28;20033;-66
2023/10/17 08:49:29;;;;;;;7.90;2.42;;;;;;;;;;5020960;28;20038;-66
2023/10/17 08:51:57;;;;;;;3.50;1.70;;;;;;;;;;4969806;28;20081;-65
2023/10/17 08:54:23;;;;;;;5.18;2.00;;;;;;;;;;4999392;28;20656;-65
2023/10/17 08:56:48;;;;;;;4.50;1.85;;;;;;;;;;5029789;28;20026;-65
2023/10/17 08:59:15;;;;;;;5.82;2.15;;;;;;;;;;4985887;28;20048;-65
2023/10/17 09:01:59;;;;;;;5.75;1.98;;;;;;;;;;5010333;28;20025;-65
2023/10/17 09:04:24;;;;;;;4.07;1.73;;;;;;;;;;5001140;28;20069;-66
2023/10/17 09:06:59;;;;;;;2.67;1.50;;;;;;;;;;5000556;28;20021;-67
2023/10/17 09:09:25;;;;;;;7.72;1.60;;;;;;;;;;4995941;28;20105;-66
2023/10/17 09:14:37;;;;;;;4.80;1.83;;;;;;;;;;4998028;28;20080;-66
2023/10/17 09:17:49;;;;;;;6.03;1.90;;;;;;;;;;4997433;28;20132;-67
2023/10/17 09:19:52;;;;;;;4.10;1.80;;;;;;;;;;4992912;28;20044;-68
2023/10/17 09:22:40;;;;;;;4.93;1.55;;;;;;;;;;4997548;28;20586;-67
2023/10/17 09:25:23;;;;;;;3.50;1.65;;;;;;;;;;4995477;28;21355;-67
2023/10/17 09:27:49;;;;;;;3.80;1.67;;;;;;;;;;4998816;28;20165;-67
2023/10/17 09:30:17;;;;;;;6.40;1.65;;;;;;;;;;5001908;28;20125;-67
2023/10/17 09:32:42;;;;;;;4.10;1.63;;;;;;;;;;4996140;28;20047;-67
2023/10/17 09:35:19;;;;;;;3.47;1.40;;;;;;;;;;5002607;28;20021;-67
2023/10/17 09:37:44;;;;;;;4.47;1.70;;;;;;;;;;4999913;28;20277;-68
2023/10/17 09:40:14;;;;;;;4.57;1.83;;;;;;;;;;4996002;28;20775;-67
2023/10/17 09:42:45;;;;;;;5.15;1.85;;;;;;;;;;4988410;28;20361;-68
2023/10/17 09:45:11;;;;;;;6.88;1.90;;;;;;;;;;4986382;28;20026;-67
2023/10/17 09:47:41;;;;;;;6.88;1.50;;;;;;;;;;4990496;28;20038;-69
2023/10/17 09:50:09;;;;;;;4.45;1.45;;;;;;;;;;4984926;28;20040;-68
2023/10/17 09:52:34;;;;;;;3.35;1.35;;;;;;;;;;4985128;28;20170;-68
2023/10/17 09:55:04;;;;;;;6.32;1.98;;;;;;;;;;4983722;28;20023;-68
2023/10/17 09:57:31;;;;;;;6.00;1.70;;;;;;;;;;4984189;28;20103;-69
2023/10/17 10:00:14;;;;;;;3.90;1.67;;;;;;;;;;4984843;28;20085;-73
2023/10/17 10:02:41;;;;;;;4.80;1.80;;;;;;;;;;4985602;28;20037;-70
2023/10/17 10:05:19;;;;;;;2.70;1.25;;;;;;;;;;4986487;28;20030;-69
2023/10/17 10:11:15;;;;;;;6.70;1.60;;;;;;;;;;5071334;27;20203;-60
2023/10/17 10:14:00;;;;;;;11.05;1.60;;;;;;;;;;5052744;28;20542;-61
2023/10/17 10:16:46;;;;;;;7.40;1.42;;;;;;;;;;5048619;28;20072;-60
2023/10/17 10:19:14;;;;;;;6.28;1.77;;;;;;;;;;5050221;28;20799;-60
2023/10/17 10:21:55;;;;;;;5.07;1.25;;;;;;;;;;5052975;28;20134;-62
2023/10/17 10:24:41;;;;;;;3.30;1.17;;;;;;;;;;5051941;28;20061;-61
2023/10/17 10:27:15;;;;;;;4.35;1.20;;;;;;;;;;5049041;28;22011;-64
2023/10/17 10:29:45;;;;;;;7.72;1.35;;;;;;;;;;5048937;28;20562;-60
2023/10/17 10:32:25;;;;;;;3.65;1.02;;;;;;;;;;5049310;28;20514;-61
2023/10/17 10:34:52;;;;;;;2.80;1.30;;;;;;;;;;5050621;28;20053;-61
2023/10/17 10:37:18;;;;;;;4.13;1.42;;;;;;;;;;5043973;28;20065;-59
2023/10/17 10:40:02;;;;;;;3.80;1.05;;;;;;;;;;5044555;28;20482;-60
2023/10/17 10:42:39;;;;;;;6.40;1.20;;;;;;;;;;5047385;28;20092;-60
2023/10/17 10:45:05;;;;;;;4.65;1.00;;;;;;;;;;5047218;28;20087;-60
2023/10/17 10:47:31;;;;;;;5.55;1.25;;;;;;;;;;5047471;28;20029;-59
2023/10/17 10:50:00;;;;;;;5.18;1.35;;;;;;;;;;5048528;28;20041;-60
2023/10/17 10:52:26;;;;;;;3.53;1.17;;;;;;;;;;5046573;28;20136;-60
2023/10/17 10:54:59;;;;;;;3.47;0.90;;;;;;;;;;5061330;28;20036;-60
2023/10/17 10:57:28;;;;;;;8.63;1.08;;;;;;;;;;5015587;27;20521;-61
2023/10/17 10:59:54;;;;;;;3.83;1.05;;;;;;;;;;5025482;28;20069;-61
2023/10/17 11:02:20;;;;;;;5.10;1.20;;;;;;;;;;5006083;28;20663;-61
2023/10/17 11:04:47;;;;;;;2.08;0.93;;;;;;;;;;5028069;28;20579;-60
2023/10/17 11:07:19;;;;;;;3.85;1.08;;;;;;;;;;5027990;28;20138;-61
2023/10/17 11:09:59;;;;;;;2.35;1.13;;;;;;;;;;5035879;28;20122;-61
2023/10/17 11:12:25;;;;;;;1.88;0.90;;;;;;;;;;5013882;28;20687;-62
2023/10/17 11:15:08;;;;;;;3.85;1.13;;;;;;;;;;5016090;28;20138;-61
2023/10/17 11:17:33;;;;;;;2.42;1.00;;;;;;;;;;5044479;28;20094;-60
2023/10/17 11:19:59;;;;;;;2.63;1.05;;;;;;;;;;5047169;28;20450;-61
2023/10/17 11:22:25;;;;;;;2.33;0.93;;;;;;;;;;5034178;28;20056;-61
2023/10/17 11:24:51;;;;;;;7.97;1.08;;;;;;;;;;5034531;28;20479;-61
2023/10/17 11:27:17;;;;;;;4.03;1.33;;;;;;;;;;5032207;28;20672;-61
2023/10/17 11:29:44;;;;;;;3.45;1.25;;;;;;;;;;5031625;28;20075;-62
2023/10/17 11:32:11;;;;;;;3.05;1.08;;;;;;;;;;5032952;28;20065;-62
2023/10/17 11:34:36;;;;;;;3.15;1.10;;;;;;;;;;5035206;28;20076;-61
2023/10/17 11:37:02;;;;;;;2.50;0.80;;;;;;;;;;5032549;28;20054;-61
2023/10/17 11:39:42;;;;;;;4.00;1.30;;;;;;;;;;5032495;28;20037;-61
2023/10/17 11:42:07;;;;;;;4.45;1.40;;;;;;;;;;5035583;28;20401;-61
2023/10/17 11:44:39;;;;;;;6.25;1.15;;;;;;;;;;5033748;28;20077;-62
2023/10/17 11:47:20;;;;;;;3.55;1.05;;;;;;;;;;5032721;28;20073;-60
2023/10/17 11:49:49;;;;;;;3.58;0.90;;;;;;;;;;5034666;28;20151;-61
2023/10/17 11:52:15;;;;;;;3.90;1.02;;;;;;;;;;5034793;28;20071;-60
2023/10/17 11:54:56;;;;;;;3.53;1.20;;;;;;;;;;5034093;28;20057;-60
2023/10/17 11:57:25;;;;;;;3.35;1.30;;;;;;;;;;5034260;28;20071;-60
2023/10/17 11:59:54;;;;;;;1.77;0.82;;;;;;;;;;5035218;28;20068;-61
2023/10/17 12:02:20;;;;;;;3.92;1.00;;;;;;;;;;5027313;28;20068;-62
2023/10/17 12:04:45;;;;;;;4.57;1.35;;;;;;;;;;5030679;28;20095;-61
2023/10/17 12:07:11;;;;;;;5.10;1.33;;;;;;;;;;5029775;28;20037;-62
2023/10/17 12:09:37;;;;;;;3.53;1.05;;;;;;;;;;5030629;28;20034;-61
2023/10/17 12:12:02;;;;;;;2.80;1.30;;;;;;;;;;5030805;28;20053;-62
2023/10/17 12:14:28;;;;;;;3.15;0.98;;;;;;;;;;5030684;28;20083;-61
2023/10/17 12:16:54;;;;;;;2.95;1.15;;;;;;;;;;5029522;28;20517;-62
2023/10/17 12:19:20;;;;;;;6.97;0.90;;;;;;;;;;5028628;28;20041;-60
2023/10/17 12:21:48;;;;;;;2.42;0.80;;;;;;;;;;5028182;28;20669;-61
2023/10/17 12:24:19;;;;;;;6.10;1.13;;;;;;;;;;5028450;28;20061;-62
2023/10/17 12:26:49;;;;;;;3.30;1.00;;;;;;;;;;5027111;28;20057;-62
2023/10/17 12:29:15;;;;;;;2.47;1.00;;;;;;;;;;5031123;28;20057;-62
2023/10/17 12:31:41;;;;;;;12.90;1.40;;;;;;;;;;5028820;28;20161;-61
2023/10/17 12:34:07;;;;;;;5.30;1.20;;;;;;;;;;5031498;28;20049;-61
2023/10/17 12:36:36;;;;;;;3.03;0.90;;;;;;;;;;5033587;28;20053;-62
2023/10/17 12:39:03;;;;;;;4.15;1.15;;;;;;;;;;5032549;28;20071;-62
2023/10/17 12:41:31;;;;;;;2.38;1.20;;;;;;;;;;5032793;28;20722;-59
2023/10/17 12:43:58;;;;;;;5.53;0.90;;;;;;;;;;5033557;28;20521;-58
2023/10/17 12:46:24;;;;;;;2.58;0.93;;;;;;;;;;5031395;28;20077;-59
2023/10/17 12:48:49;;;;;;;2.58;0.95;;;;;;;;;;5032755;28;20048;-61
2023/10/17 12:51:15;;;;;;;4.22;0.93;;;;;;;;;;5030382;28;20060;-59
2023/10/17 12:53:41;;;;;;;1.77;0.70;;;;;;;;;;5028714;28;20590;-59
2023/10/17 12:56:09;;;;;;;5.15;0.82;;;;;;;;;;5023422;28;21012;-58
2023/10/17 12:58:36;;;;;;;3.45;0.90;;;;;;;;;;5028840;28;20133;-59
2023/10/17 13:01:05;;;;;;;3.55;1.10;;;;;;;;;;5031861;28;20076;-60
2023/10/17 13:03:36;;;;;;;5.07;1.02;;;;;;;;;;5031684;28;20072;-60
2023/10/17 13:06:02;;;;;;;3.05;0.98;;;;;;;;;;5029227;28;20072;-58
2023/10/17 13:08:27;;;;;;;3.33;1.10;;;;;;;;;;5028999;28;20766;-58
2023/10/17 13:10:54;;;;;;;1.85;0.70;;;;;;;;;;5030910;28;20078;-60
2023/10/17 13:13:19;;;;;;;3.20;0.98;;;;;;;;;;5031765;28;20064;-59
2023/10/17 13:15:45;;;;;;;5.53;1.08;;;;;;;;;;5029809;28;20049;-59
2023/10/17 13:18:12;;;;;;;4.07;1.20;;;;;;;;;;5031138;28;20044;-58
2023/10/17 13:20:38;;;;;;;6.00;1.35;;;;;;;;;;5030444;28;20069;-58
2023/10/17 13:23:04;;;;;;;4.25;0.90;;;;;;;;;;5028968;28;20554;-59
2023/10/17 13:25:33;;;;;;;2.88;1.10;;;;;;;;;;5028988;28;20063;-59
2023/10/17 13:27:59;;;;;;;1.80;0.60;;;;;;;;;;5028073;28;20432;-59
2023/10/17 13:30:26;;;;;;;1.67;0.60;;;;;;;;;;5028610;28;20063;-59
2023/10/17 13:32:52;;;;;;;1.95;0.57;;;;;;;;;;5028471;28;20060;-59
2023/10/17 13:35:19;;;;;;;2.75;0.80;;;;;;;;;;5029385;28;20064;-61
2023/10/17 13:37:51;;;;;;;1.00;0.50;;;;;;;;;;5032375;28;20060;-60
2023/10/17 13:40:18;;;;;;;1.60;0.50;;;;;;;;;;5031329;28;20064;-61
2023/10/17 13:42:43;;;;;;;1.27;0.50;;;;;;;;;;5030288;28;20072;-60
2023/10/17 13:45:13;;;;;;;0.80;0.50;;;;;;;;;;5028537;28;20106;-61
2023/10/17 13:47:40;;;;;;;0.98;0.50;;;;;;;;;;5028782;28;20033;-59
2023/10/17 13:50:06;;;;;;;1.42;0.60;;;;;;;;;;5029713;28;20057;-62
2023/10/17 13:52:32;;;;;;;1.50;0.70;;;;;;;;;;5033097;28;20126;-61
2023/10/17 13:54:58;;;;;;;4.57;0.82;;;;;;;;;;5031161;28;20033;-61
2023/10/17 13:57:29;;;;;;;4.22;0.90;;;;;;;;;;5032140;28;20068;-62
2023/10/17 13:59:55;;;;;;;1.48;0.68;;;;;;;;;;5032060;28;20585;-62
2023/10/17 14:02:21;;;;;;;4.82;0.77;;;;;;;;;;5031194;28;20103;-61
2023/10/17 14:04:47;;;;;;;7.28;1.30;;;;;;;;;;5029905;28;20745;-60
2023/10/17 14:07:13;;;;;;;8.30;1.13;;;;;;;;;;5031114;28;20098;-63
2023/10/17 14:09:42;;;;;;;2.30;0.68;;;;;;;;;;5028835;28;20033;-62
2023/10/17 14:12:11;;;;;;;3.85;1.15;;;;;;;;;;4962162;28;88590;-59
2023/10/17 14:14:36;;;;;;;7.05;1.65;;;;;;;;;;5026783;28;20061;-63
2023/10/17 14:17:03;;;;;;;1.70;0.68;;;;;;;;;;5029579;28;20071;-59
2023/10/17 14:19:37;;;;;;;3.47;1.08;;;;;;;;;;5029243;28;20057;-59
2023/10/17 14:24:49;;;;;;;4.20;0.82;;;;;;;;;;5032216;28;20048;-58
2023/10/17 14:27:29;;;;;;;4.18;0.95;;;;;;;;;;5030959;28;20062;-61
2023/10/17 14:29:58;;;;;;;3.50;1.05;;;;;;;;;;5028991;28;20068;-60
2023/10/17 14:32:24;;;;;;;4.47;0.80;;;;;;;;;;5029683;28;20076;-60
2023/10/17 14:34:50;;;;;;;4.78;0.82;;;;;;;;;;5032276;28;20036;-61
2023/10/17 14:37:15;;;;;;;4.45;0.80;;;;;;;;;;5028231;28;20648;-61
2023/10/17 14:39:42;;;;;;;3.20;0.75;;;;;;;;;;5027804;28;20037;-59
2023/10/17 14:42:10;;;;;;;5.05;0.88;;;;;;;;;;5027741;28;20103;-61
2023/10/17 14:44:38;;;;;;;5.55;0.90;;;;;;;;;;5030513;28;20064;-61
2023/10/17 14:47:06;;;;;;;3.00;0.82;;;;;;;;;;5029078;28;20723;-61
2023/10/17 14:49:31;;;;;;;2.90;0.90;;;;;;;;;;5028931;28;20056;-61
2023/10/17 14:51:57;;;;;;;2.22;0.80;;;;;;;;;;5029575;28;20087;-61
2023/10/17 14:54:23;;;;;;;5.95;1.27;;;;;;;;;;5032029;28;20039;-61
2023/10/17 14:56:50;;;;;;;5.78;0.80;;;;;;;;;;5032324;28;20045;-61
2023/10/17 14:59:17;;;;;;;3.47;1.00;;;;;;;;;;5029864;28;20655;-60
2023/10/17 15:01:43;;;;;;;5.18;0.70;;;;;;;;;;5032555;28;20091;-60
2023/10/17 15:04:09;;;;;;;3.17;0.90;;;;;;;;;;5037571;28;20053;-59
2023/10/17 15:06:36;;;;;;;2.25;0.85;;;;;;;;;;5038442;28;20049;-61
2023/10/17 15:09:06;;;;;;;4.40;1.10;;;;;;;;;;5038903;28;20052;-61
2023/10/17 15:11:32;;;;;;;5.55;0.80;;;;;;;;;;5035884;28;20076;-60
2023/10/17 15:14:00;;;;;;;1.52;0.52;;;;;;;;;;5031878;28;20037;-61
2023/10/17 15:16:27;;;;;;;3.67;0.82;;;;;;;;;;5037358;28;20060;-61
2023/10/17 15:18:54;;;;;;;1.75;0.50;;;;;;;;;;5031902;28;20102;-58
2023/10/17 15:21:19;;;;;;;4.07;0.85;;;;;;;;;;5030638;28;20060;-61
2023/10/17 15:23:45;;;;;;;2.40;0.77;;;;;;;;;;5033148;28;20049;-60
2023/10/17 15:26:11;;;;;;;3.10;0.75;;;;;;;;;;5033469;28;20604;-60
2023/10/17 15:28:37;;;;;;;7.78;0.75;;;;;;;;;;5037307;28;20050;-59
2023/10/17 15:31:06;;;;;;;1.85;0.75;;;;;;;;;;5031126;28;20045;-59
2023/10/17 15:33:32;;;;;;;4.45;0.85;;;;;;;;;;5030367;28;20068;-59
2023/10/17 15:35:59;;;;;;;2.28;0.60;;;;;;;;;;5034748;28;20040;-59
2023/10/17 15:38:24;;;;;;;2.05;0.65;;;;;;;;;;5036532;28;20091;-59
2023/10/17 15:40:50;;;;;;;4.68;0.65;;;;;;;;;;5034575;28;20033;-60
2023/10/17 15:43:16;;;;;;;2.78;0.85;;;;;;;;;;5033483;28;20052;-59
2023/10/17 15:45:49;;;;;;;1.98;0.80;;;;;;;;;;5037922;28;20562;-61
2023/10/17 15:48:14;;;;;;;2.90;0.85;;;;;;;;;;5036189;28;20514;-60
2023/10/17 15:50:40;;;;;;;5.40;0.70;;;;;;;;;;5036482;28;20079;-60
2023/10/17 15:53:06;;;;;;;3.97;0.70;;;;;;;;;;5035565;28;20029;-60
2023/10/17 15:55:32;;;;;;;5.60;0.60;;;;;;;;;;5034664;28;20041;-61
2023/10/17 15:57:57;;;;;;;2.30;0.77;;;;;;;;;;5036350;28;20055;-60
2023/10/17 16:00:23;;;;;;;3.15;0.77;;;;;;;;;;5038528;28;20044;-60
2023/10/17 16:02:49;;;;;;;3.33;0.75;;;;;;;;;;5033715;28;20066;-60
2023/10/17 16:05:14;;;;;;;1.65;0.57;;;;;;;;;;5030254;28;20525;-61
2023/10/17 16:07:43;;;;;;;2.58;0.80;;;;;;;;;;5028721;28;20032;-61
2023/10/17 16:10:13;;;;;;;3.95;0.98;;;;;;;;;;5027156;28;20068;-61
2023/10/17 16:12:39;;;;;;;1.95;0.65;;;;;;;;;;5030947;28;20832;-62
2023/10/17 16:15:06;;;;;;;2.30;0.60;;;;;;;;;;5034845;28;20076;-61
2023/10/17 16:17:35;;;;;;;3.50;0.52;;;;;;;;;;5030504;28;20073;-61
2023/10/17 16:20:13;;;;;;;1.02;0.40;;;;;;;;;;5031703;28;20529;-62
2023/10/17 16:22:39;;;;;;;1.70;0.60;;;;;;;;;;5031145;28;20122;-61
2023/10/17 16:25:06;;;;;;;2.25;0.70;;;;;;;;;;5025830;28;20041;-62
2023/10/17 16:27:35;;;;;;;2.13;0.90;;;;;;;;;;5032975;28;20057;-65
2023/10/17 16:30:05;;;;;;;2.28;0.50;;;;;;;;;;5031154;28;20055;-64
2023/10/17 16:32:32;;;;;;;1.33;0.50;;;;;;;;;;5033626;28;20104;-65
2023/10/17 16:34:58;;;;;;;1.17;0.50;;;;;;;;;;5034369;28;20117;-65
2023/10/17 16:37:24;;;;;;;2.42;0.75;;;;;;;;;;5030746;28;20061;-65
2023/10/17 16:39:50;;;;;;;2.80;0.70;;;;;;;;;;5029666;28;21834;-64
2023/10/17 16:42:15;;;;;;;4.78;1.10;;;;;;;;;;5030981;28;20037;-64
2023/10/17 16:44:41;;;;;;;4.65;1.05;;;;;;;;;;5026772;28;20520;-64
2023/10/17 16:47:06;;;;;;;4.32;1.73;;;;;;;;;;5026128;28;20029;-65
2023/10/17 16:49:33;;;;;;;3.67;0.80;;;;;;;;;;5027657;28;20088;-64
2023/10/17 16:52:02;;;;;;;5.13;1.00;;;;;;;;;;5030649;28;20116;-62
2023/10/17 16:54:29;;;;;;;2.78;0.75;;;;;;;;;;5025396;28;20145;-63
2023/10/17 16:56:55;;;;;;;5.20;1.23;;;;;;;;;;5029708;28;20119;-63
2023/10/17 16:59:21;;;;;;;3.75;1.10;;;;;;;;;;5026804;28;20218;-64
2023/10/17 17:01:46;;;;;;;3.80;0.93;;;;;;;;;;5026979;28;20124;-64
2023/10/17 17:04:12;;;;;;;5.22;1.20;;;;;;;;;;5031971;28;20279;-65
2023/10/17 17:06:38;;;;;;;4.32;1.08;;;;;;;;;;5027505;28;20439;-65
2023/10/17 17:09:04;;;;;;;4.78;1.13;;;;;;;;;;5028397;28;20056;-63
2023/10/17 17:11:30;;;;;;;5.45;1.42;;;;;;;;;;5027695;28;20523;-63
2023/10/17 17:13:55;;;;;;;7.13;1.45;;;;;;;;;;5029099;28;20037;-64
2023/10/17 17:16:21;;;;;;;6.22;1.35;;;;;;;;;;5028623;28;20178;-64
2023/10/17 17:18:47;;;;;;;4.15;1.38;;;;;;;;;;5027769;28;20029;-65
2023/10/17 17:21:12;;;;;;;5.88;1.52;;;;;;;;;;5026117;28;21067;-64
2023/10/17 17:23:38;;;;;;;3.85;1.52;;;;;;;;;;5027217;28;20099;-65
2023/10/17 17:26:03;;;;;;;4.15;1.58;;;;;;;;;;5030907;28;20029;-64
2023/10/17 17:28:29;;;;;;;4.05;1.30;;;;;;;;;;5032665;28;20617;-64
2023/10/17 17:30:55;;;;;;;7.07;1.83;;;;;;;;;;5032836;28;20057;-67
2023/10/17 17:33:21;;;;;;;10.88;1.75;;;;;;;;;;5034212;28;20025;-64
2023/10/17 17:35:47;;;;;;;5.25;1.20;;;;;;;;;;5031825;28;20098;-63
2023/10/17 17:38:12;;;;;;;2.47;1.13;;;;;;;;;;5031721;28;20498;-63
2023/10/17 17:40:38;;;;;;;5.15;1.33;;;;;;;;;;5030499;28;20033;-63
2023/10/17 17:43:04;;;;;;;9.65;1.60;;;;;;;;;;5031129;28;20040;-63
2023/10/17 17:45:29;;;;;;;5.85;1.73;;;;;;;;;;5032241;28;20045;-63
2023/10/17 17:47:55;;;;;;;4.05;1.42;;;;;;;;;;5032665;28;20033;-63
2023/10/17 17:50:20;;;;;;;3.70;1.42;;;;;;;;;;5033242;28;21317;-64
2023/10/17 17:52:46;;;;;;;8.38;1.40;;;;;;;;;;5031130;28;20033;-63
2023/10/17 17:55:13;;;;;;;6.43;1.42;;;;;;;;;;5031496;28;21274;-64
2023/10/17 17:57:39;;;;;;;2.45;1.10;;;;;;;;;;5033388;28;20076;-63
2023/10/17 18:00:09;;;;;;;4.00;1.13;;;;;;;;;;5033574;28;20051;-62
2023/10/17 18:02:34;;;;;;;9.80;1.40;;;;;;;;;;5030727;28;20058;-64
2023/10/17 18:05:00;;;;;;;5.22;1.40;;;;;;;;;;5028783;28;20124;-63
2023/10/17 18:07:25;;;;;;;5.65;1.60;;;;;;;;;;5033469;28;20112;-63
2023/10/17 18:09:51;;;;;;;4.40;1.45;;;;;;;;;;5029309;28;20113;-61
2023/10/17 18:12:18;;;;;;;7.60;1.40;;;;;;;;;;5028760;28;20403;-63
2023/10/17 18:14:44;;;;;;;2.85;1.35;;;;;;;;;;5030624;28;20516;-63
2023/10/17 18:17:13;;;;;;;2.85;1.27;;;;;;;;;;5032177;28;20067;-63
2023/10/17 18:19:39;;;;;;;7.72;1.50;;;;;;;;;;5034679;28;20072;-62
2023/10/17 18:22:04;;;;;;;5.03;1.30;;;;;;;;;;5031170;28;20134;-63
2023/10/17 18:24:30;;;;;;;5.93;1.73;;;;;;;;;;5034687;28;20683;-63
2023/10/17 18:26:56;;;;;;;7.80;1.55;;;;;;;;;;5032223;28;20055;-63
2023/10/17 18:29:23;;;;;;;3.17;1.30;;;;;;;;;;5027549;28;20072;-63
2023/10/17 18:31:48;;;;;;;7.82;1.75;;;;;;;;;;5029158;28;20618;-63
2023/10/17 18:34:14;;;;;;;4.53;1.50;;;;;;;;;;5033432;28;20095;-63
2023/10/17 18:36:39;;;;;;;6.57;1.42;;;;;;;;;;5031488;28;20037;-62
2023/10/17 18:39:05;;;;;;;11.95;1.67;;;;;;;;;;5032087;28;20041;-62
2023/10/17 18:41:36;;;;;;;4.95;1.77;;;;;;;;;;5030235;28;20044;-63
2023/10/17 18:44:06;;;;;;;4.85;1.58;;;;;;;;;;5031117;28;20110;-63
2023/10/17 18:46:32;;;;;;;4.93;1.38;;;;;;;;;;5033263;28;20084;-63
2023/10/17 18:48:58;;;;;;;3.78;1.52;;;;;;;;;;5033496;28;20053;-63
2023/10/17 18:51:23;;;;;;;8.30;1.75;;;;;;;;;;5034927;28;20082;-62
2023/10/17 18:53:51;;;;;;;5.88;1.77;;;;;;;;;;5037227;28;20029;-63
2023/10/17 18:56:17;;;;;;;3.75;1.50;;;;;;;;;;5033269;28;20057;-63
2023/10/17 18:58:43;;;;;;;4.95;1.40;;;;;;;;;;5035133;28;20394;-62
2023/10/17 19:01:10;;;;;;;3.20;1.52;;;;;;;;;;5036136;28;20104;-62
2023/10/17 19:03:36;;;;;;;4.65;1.75;;;;;;;;;;5034980;28;20098;-63
2023/10/17 19:06:02;;;;;;;10.38;1.60;;;;;;;;;;5033347;28;20072;-64
2023/10/17 19:08:29;;;;;;;6.00;1.70;;;;;;;;;;5034730;28;20088;-62
2023/10/17 19:10:55;;;;;;;14.82;1.70;;;;;;;;;;5036594;28;20068;-62
2023/10/17 19:13:20;;;;;;;5.47;1.40;;;;;;;;;;5035511;28;20560;-63
2023/10/17 19:15:46;;;;;;;8.02;1.90;;;;;;;;;;5038541;28;20024;-64
2023/10/17 19:18:13;;;;;;;3.08;1.63;;;;;;;;;;5034481;28;20063;-63
2023/10/17 19:20:40;;;;;;;5.63;1.80;;;;;;;;;;5034235;28;20061;-63
2023/10/17 19:23:06;;;;;;;8.43;1.77;;;;;;;;;;5036874;28;20605;-64
2023/10/17 19:25:31;;;;;;;6.75;1.85;;;;;;;;;;5035414;28;20072;-64
2023/10/17 19:27:57;;;;;;;9.55;2.28;;;;;;;;;;5032510;28;20040;-64
2023/10/17 19:30:24;;;;;;;6.70;2.55;;;;;;;;;;5033843;28;20393;-63
2023/10/17 19:32:50;;;;;;;12.65;2.53;;;;;;;;;;5032223;28;20068;-64
2023/10/17 19:35:16;;;;;;;6.85;2.70;;;;;;;;;;5029718;28;20493;-63
2023/10/17 19:37:42;;;;;;;6.50;2.78;;;;;;;;;;5037181;28;20071;-64
2023/10/17 19:40:08;;;;;;;9.02;2.97;;;;;;;;;;5031796;28;20068;-63
2023/10/17 19:42:34;;;;;;;6.13;2.58;;;;;;;;;;5030449;28;20061;-63
2023/10/17 19:45:00;;;;;;;7.20;2.70;;;;;;;;;;5030573;28;20108;-64
2023/10/17 19:47:27;;;;;;;5.57;2.47;;;;;;;;;;5032793;28;20079;-64
2023/10/17 19:49:53;;;;;;;5.82;2.10;;;;;;;;;;5030302;28;20123;-64
2023/10/17 19:52:18;;;;;;;5.32;2.33;;;;;;;;;;5030400;28;20067;-64
2023/10/17 19:54:44;;;;;;;7.00;2.33;;;;;;;;;;5030537;28;20029;-64
2023/10/17 19:57:09;;;;;;;4.57;2.30;;;;;;;;;;5031781;28;20105;-64
2023/10/17 19:59:35;;;;;;;83.63;22.70;;;;;;;;;;5030757;28;20446;-64
2023/10/17 20:02:01;;;;;;;15.35;6.13;;;;;;;;;;5032516;28;20101;-64
2023/10/17 20:04:29;;;;;;;30.67;8.20;;;;;;;;;;5030925;28;20087;-61
2023/10/17 20:06:55;;;;;;;29.10;9.07;;;;;;;;;;5032772;28;20072;-61
2023/10/17 20:09:25;;;;;;;25.17;7.75;;;;;;;;;;5034169;28;20703;-61
2023/10/17 20:11:52;;;;;;;26.83;7.82;;;;;;;;;;5033937;28;20425;-61
2023/10/17 20:14:17;;;;;;;27.17;7.57;;;;;;;;;;5030458;28;20047;-61
2023/10/17 20:16:43;;;;;;;23.95;7.72;;;;;;;;;;5028289;28;20041;-60
2023/10/17 20:19:09;;;;;;;22.23;7.70;;;;;;;;;;5033647;28;20037;-61
2023/10/17 20:21:37;;;;;;;16.55;6.43;;;;;;;;;;5032720;28;20045;-61
2023/10/17 20:24:05;;;;;;;15.55;5.60;;;;;;;;;;5029359;28;20076;-61
2023/10/17 20:26:34;;;;;;;17.33;5.90;;;;;;;;;;5032924;28;20061;-61
2023/10/17 20:29:00;;;;;;;13.43;5.03;;;;;;;;;;5035151;28;20123;-61
2023/10/17 20:31:26;;;;;;;19.13;6.18;;;;;;;;;;5032252;28;20926;-61
2023/10/17 20:33:52;;;;;;;18.63;5.70;;;;;;;;;;5032704;28;20037;-60
2023/10/17 20:36:17;;;;;;;19.80;4.97;;;;;;;;;;5031842;28;20034;-60
2023/10/17 20:38:43;;;;;;;13.90;4.90;;;;;;;;;;5031166;28;20045;-61
2023/10/17 20:41:10;;;;;;;13.40;4.18;;;;;;;;;;5029034;28;20064;-61
2023/10/17 20:43:36;;;;;;;14.35;5.07;;;;;;;;;;5032068;28;20059;-61
2023/10/17 20:46:02;;;;;;;13.60;4.35;;;;;;;;;;5031703;28;20172;-61
2023/10/17 20:48:31;;;;;;;14.05;5.03;;;;;;;;;;5031015;28;20049;-61
2023/10/17 20:51:03;;;;;;;11.43;4.88;;;;;;;;;;5031490;28;20068;-61
2023/10/17 20:53:31;;;;;;;11.20;4.25;;;;;;;;;;5029984;28;20080;-61
2023/10/17 20:56:00;;;;;;;14.38;4.15;;;;;;;;;;5034179;28;20060;-61
2023/10/17 20:58:26;;;;;;;13.65;4.40;;;;;;;;;;5029114;28;20511;-61
2023/10/17 21:00:52;;;;;;;14.25;4.55;;;;;;;;;;5027175;28;20091;-60
2023/10/17 21:03:18;;;;;;;12.70;4.10;;;;;;;;;;5030553;28;20077;-61
2023/10/17 21:05:46;;;;;;;10.68;4.90;;;;;;;;;;5031024;28;20045;-60
2023/10/17 21:08:12;;;;;;;13.32;4.30;;;;;;;;;;5031705;28;20112;-60
2023/10/17 21:10:41;;;;;;;12.98;4.43;;;;;;;;;;5028627;28;20083;-61
2023/10/17 21:13:07;;;;;;;11.82;4.13;;;;;;;;;;5031536;28;20099;-61
2023/10/17 21:15:33;;;;;;;12.35;4.00;;;;;;;;;;5030777;28;20025;-61
2023/10/17 21:17:58;;;;;;;12.05;4.40;;;;;;;;;;5028219;28;20032;-61
2023/10/17 21:20:24;;;;;;;18.50;3.97;;;;;;;;;;5029263;28;20765;-60
2023/10/17 21:22:52;;;;;;;10.75;3.35;;;;;;;;;;5033590;28;20102;-61
2023/10/17 21:25:18;;;;;;;8.95;3.67;;;;;;;;;;5028144;28;20877;-62
2023/10/17 21:27:45;;;;;;;8.70;3.58;;;;;;;;;;5034867;28;20048;-61
2023/10/17 21:30:12;;;;;;;10.95;3.95;;;;;;;;;;5034060;28;20550;-61
2023/10/17 21:32:38;;;;;;;10.57;3.92;;;;;;;;;;5031603;28;20052;-60
2023/10/17 21:35:07;;;;;;;11.90;3.85;;;;;;;;;;5033601;28;20555;-61
2023/10/17 21:37:33;;;;;;;6.68;3.63;;;;;;;;;;5032560;28;20065;-59
2023/10/17 21:39:59;;;;;;;9.30;3.60;;;;;;;;;;5033816;28;20118;-60
2023/10/17 21:42:24;;;;;;;8.20;3.20;;;;;;;;;;5036775;28;20041;-61
2023/10/17 21:44:50;;;;;;;9.73;3.72;;;;;;;;;;5035994;28;20110;-61
2023/10/17 21:47:15;;;;;;;9.77;3.83;;;;;;;;;;5036880;28;20118;-61
2023/10/17 21:49:41;;;;;;;14.07;3.30;;;;;;;;;;5031223;28;20041;-61
2023/10/17 21:52:07;;;;;;;8.73;3.65;;;;;;;;;;5033095;28;20045;-61
2023/10/17 21:54:35;;;;;;;8.38;3.60;;;;;;;;;;5034140;28;20061;-61
2023/10/17 21:57:00;;;;;;;8.88;3.53;;;;;;;;;;5037879;28;20057;-61
2023/10/17 21:59:26;;;;;;;8.82;3.35;;;;;;;;;;5035707;28;20078;-61
2023/10/17 22:01:54;;;;;;;6.95;3.58;;;;;;;;;;5034570;28;20384;-61
2023/10/17 22:04:20;;;;;;;7.38;3.40;;;;;;;;;;5036098;28;20584;-61
2023/10/17 22:06:48;;;;;;;6.82;2.83;;;;;;;;;;5035361;28;20053;-61
2023/10/17 22:09:14;;;;;;;8.05;3.38;;;;;;;;;;5037943;28;20109;-61
2023/10/17 22:11:41;;;;;;;9.35;3.08;;;;;;;;;;5036976;28;20062;-61
2023/10/17 22:14:08;;;;;;;9.20;3.58;;;;;;;;;;5037333;28;20654;-61
2023/10/17 22:16:36;;;;;;;6.55;3.05;;;;;;;;;;5033484;28;20065;-61
2023/10/17 22:19:02;;;;;;;9.48;3.33;;;;;;;;;;5031810;28;20065;-61
2023/10/17 22:21:27;;;;;;;7.55;3.58;;;;;;;;;;5033276;28;20049;-61
2023/10/17 22:23:53;;;;;;;6.38;3.30;;;;;;;;;;5030181;28;20499;-61
2023/10/17 22:26:19;;;;;;;8.35;3.15;;;;;;;;;;5035271;28;20048;-62
2023/10/17 22:28:45;;;;;;;7.60;3.22;;;;;;;;;;5035632;28;20037;-60
2023/10/17 22:31:11;;;;;;;8.30;3.95;;;;;;;;;;5035785;28;20467;-60
2023/10/17 22:33:37;;;;;;;7.20;3.30;;;;;;;;;;5023943;28;20099;-61
2023/10/17 22:36:07;;;;;;;7.22;3.10;;;;;;;;;;5035785;28;20072;-61
2023/10/17 22:38:34;;;;;;;9.43;3.38;;;;;;;;;;5034476;28;20068;-61
2023/10/17 22:41:00;;;;;;;7.70;3.53;;;;;;;;;;5029784;28;20057;-61
2023/10/17 22:43:26;;;;;;;5.82;3.40;;;;;;;;;;5029171;28;20040;-60
2023/10/17 22:45:51;;;;;;;6.68;3.25;;;;;;;;;;5030198;28;20136;-60
2023/10/17 22:48:18;;;;;;;6.85;3.30;;;;;;;;;;5028567;28;20044;-60
2023/10/17 22:50:44;;;;;;;6.85;3.33;;;;;;;;;;5029120;28;20075;-61
2023/10/17 22:53:10;;;;;;;7.13;3.30;;;;;;;;;;5030142;28;20045;-60
2023/10/17 22:55:38;;;;;;;9.75;3.83;;;;;;;;;;5030712;28;20069;-60
2023/10/17 22:58:03;;;;;;;7.65;3.63;;;;;;;;;;5026414;28;20130;-60
2023/10/17 23:00:31;;;;;;;6.35;3.53;;;;;;;;;;5027497;28;20040;-60
2023/10/17 23:02:56;;;;;;;7.32;3.80;;;;;;;;;;5030153;28;20064;-60
2023/10/17 23:05:23;;;;;;;7.18;3.20;;;;;;;;;;5025892;28;20044;-61
2023/10/17 23:07:49;;;;;;;7.22;3.40;;;;;;;;;;5027811;28;20598;-61
2023/10/17 23:10:15;;;;;;;12.85;4.30;;;;;;;;;;5029115;28;20099;-61
2023/10/17 23:12:41;;;;;;;8.27;3.55;;;;;;;;;;5029851;28;20045;-60
2023/10/17 23:15:16;;;;;;;9.95;3.60;;;;;;;;;;5027779;28;20403;-61
2023/10/17 23:17:42;;;;;;;;;;;;;;;;;;5029397;28;20534;-59
2023/10/17 23:20:10;;;;;;;6.30;3.40;;;;;;;;;;5031036;28;19970;-61
2023/10/17 23:22:36;;;;;;;8.85;2.95;;;;;;;;;;5036719;28;20072;-61
2023/10/17 23:25:01;;;;;;;8.32;3.55;;;;;;;;;;5035419;28;20032;-61
2023/10/17 23:27:28;;;;;;;6.45;3.25;;;;;;;;;;5035836;28;20044;-62